Time;durP1;ratioP1;P1;durP2;ratioP2;P2;SDS_P1;SDS_P2;PMS_P1;PMS_P2;Temp;Humidity;BMP_temperature;BMP_pressure;BME280_temperature;BME280_humidity;BME280_pressure;Samples;Min_cycle;Max_cycle;Signal;HPM_P1;HPM_P2
2022/07/23 00:00:33;;;;;;;0.60;0.40;;;16.90;73.30;;;;;;4880529;29;20033;-75
2022/07/23 00:02:58;;;;;;;0.30;0.30;;;16.90;73.40;;;;;;4880740;29;20079;-74
2022/07/23 00:05:24;;;;;;;0.35;0.35;;;16.90;73.60;;;;;;4897234;29;20068;-74
2022/07/23 00:07:50;;;;;;;0.35;0.35;;;16.80;73.60;;;;;;4897744;29;20062;-73
2022/07/23 00:10:16;;;;;;;0.38;0.32;;;16.70;73.70;;;;;;4880167;29;20096;-73
2022/07/23 00:12:42;;;;;;;0.30;0.30;;;16.70;73.90;;;;;;4897396;29;20037;-74
2022/07/23 00:15:08;;;;;;;0.25;0.25;;;16.70;73.90;;;;;;4880210;29;20140;-75
2022/07/23 00:17:35;;;;;;;0.73;0.38;;;16.70;73.90;;;;;;4897228;29;20514;-77
2022/07/23 00:20:01;;;;;;;0.63;0.30;;;16.60;74.00;;;;;;4880315;29;20383;-76
2022/07/23 00:22:28;;;;;;;0.20;0.20;;;16.60;74.10;;;;;;4865067;29;20033;-76
2022/07/23 00:24:55;;;;;;;0.28;0.28;;;16.50;74.20;;;;;;4897018;29;20052;-76
2022/07/23 00:27:20;;;;;;;0.38;0.38;;;16.50;74.40;;;;;;4898449;29;20052;-76
2022/07/23 00:29:46;;;;;;;0.20;0.20;;;16.50;74.50;;;;;;4867481;29;20088;-76
2022/07/23 00:32:12;;;;;;;0.40;0.32;;;16.40;74.50;;;;;;4899929;29;20048;-76
2022/07/23 00:34:38;;;;;;;0.30;0.20;;;16.50;74.60;;;;;;4883586;29;20131;-77
2022/07/23 00:37:03;;;;;;;0.40;0.40;;;16.40;74.60;;;;;;4899135;29;20039;-77
2022/07/23 00:39:29;;;;;;;0.30;0.30;;;16.50;74.70;;;;;;4882568;29;20033;-78
2022/07/23 00:41:54;;;;;;;0.40;0.40;;;16.40;74.70;;;;;;4900437;29;20033;-79
2022/07/23 00:44:24;;;;;;;0.35;0.30;;;16.40;74.80;;;;;;4884841;29;20448;-78
2022/07/23 00:46:53;;;;;;;0.22;0.22;;;16.30;74.80;;;;;;4903277;29;20476;-79
2022/07/23 00:49:22;;;;;;;0.40;0.30;;;16.20;74.70;;;;;;4881739;29;20372;-78
2022/07/23 00:51:49;;;;;;;0.20;0.20;;;16.30;74.80;;;;;;4887976;29;20040;-79
2022/07/23 00:54:16;;;;;;;0.30;0.30;;;16.30;74.80;;;;;;4881496;29;20045;-76
2022/07/23 00:56:43;;;;;;;0.30;0.30;;;16.30;74.90;;;;;;4897258;29;20029;-75
2022/07/23 00:59:09;;;;;;;0.40;0.40;;;16.30;74.90;;;;;;4896417;29;20391;-75
2022/07/23 01:01:35;;;;;;;0.40;0.40;;;16.20;74.90;;;;;;4896663;29;20120;-75
2022/07/23 01:04:00;;;;;;;0.30;0.30;;;16.20;75.00;;;;;;4880201;29;20040;-75
2022/07/23 01:06:26;;;;;;;0.20;0.20;;;16.20;75.10;;;;;;4896885;29;20351;-75
2022/07/23 01:08:54;;;;;;;0.40;0.40;;;16.20;75.10;;;;;;4897330;29;20388;-76
2022/07/23 01:11:22;;;;;;;0.50;0.43;;;16.10;75.20;;;;;;4896661;29;20092;-76
2022/07/23 01:13:47;;;;;;;0.32;0.32;;;16.10;75.20;;;;;;4881026;29;20032;-76
2022/07/23 01:16:13;;;;;;;0.45;0.30;;;16.20;75.20;;;;;;4898016;29;20502;-76
2022/07/23 01:18:39;;;;;;;0.30;0.30;;;16.10;75.20;;;;;;4896764;29;20082;-75
2022/07/23 01:21:06;;;;;;;0.28;0.28;;;16.10;75.30;;;;;;4897193;29;20076;-74
2022/07/23 01:23:32;;;;;;;0.35;0.35;;;16.10;75.40;;;;;;4864024;29;20033;-75
2022/07/23 01:25:58;;;;;;;0.32;0.32;;;16.00;75.40;;;;;;4863948;29;20385;-76
2022/07/23 01:28:23;;;;;;;0.30;0.30;;;15.90;75.30;;;;;;4879561;29;20039;-76
2022/07/23 01:30:49;;;;;;;1.00;0.38;;;16.00;75.50;;;;;;4879309;29;20041;-74
2022/07/23 01:33:15;;;;;;;0.30;0.30;;;16.00;75.50;;;;;;4896597;29;20036;-75
2022/07/23 01:35:41;;;;;;;0.40;0.40;;;16.00;75.60;;;;;;4880367;29;20460;-75
2022/07/23 01:38:07;;;;;;;0.30;0.30;;;16.00;75.60;;;;;;4900005;29;20040;-75
2022/07/23 01:40:33;;;;;;;0.40;0.40;;;15.90;75.60;;;;;;4899457;29;20075;-74
2022/07/23 01:42:58;;;;;;;0.30;0.30;;;15.90;75.70;;;;;;4882782;29;20060;-75
2022/07/23 01:45:25;;;;;;;0.35;0.35;;;15.90;75.80;;;;;;4866686;29;20491;-75
2022/07/23 01:47:51;;;;;;;0.30;0.30;;;15.90;76.50;;;;;;4899370;29;20044;-75
2022/07/23 01:50:16;;;;;;;0.50;0.40;;;15.80;75.90;;;;;;4882903;29;20482;-75
2022/07/23 01:52:43;;;;;;;0.50;0.40;;;15.80;75.90;;;;;;4899514;29;20073;-75
2022/07/23 01:55:09;;;;;;;0.30;0.30;;;15.80;75.90;;;;;;4899076;29;20115;-75
2022/07/23 01:57:35;;;;;;;0.30;0.30;;;15.80;76.00;;;;;;4882170;29;20551;-75
2022/07/23 02:00:01;;;;;;;1.02;0.40;;;15.70;76.10;;;;;;4882462;29;20193;-75
2022/07/23 02:02:27;;;;;;;0.30;0.30;;;15.70;76.20;;;;;;4881984;29;20047;-75
2022/07/23 02:04:53;;;;;;;0.32;0.32;;;15.70;76.30;;;;;;4882065;29;20040;-75
2022/07/23 02:07:19;;;;;;;0.43;0.40;;;15.60;76.30;;;;;;4898859;29;20041;-75
2022/07/23 02:09:44;;;;;;;0.50;0.50;;;15.60;76.40;;;;;;4882605;29;20047;-75
2022/07/23 02:12:10;;;;;;;0.28;0.28;;;15.60;76.40;;;;;;4882765;29;20033;-75
2022/07/23 02:14:36;;;;;;;0.22;0.22;;;15.60;76.50;;;;;;4899189;29;20456;-75
2022/07/23 02:17:02;;;;;;;0.20;0.20;;;15.50;76.40;;;;;;4882493;29;20035;-75
2022/07/23 02:19:27;;;;;;;0.30;0.30;;;15.50;76.50;;;;;;4881842;29;20048;-75
2022/07/23 02:21:54;;;;;;;0.30;0.30;;;15.50;76.60;;;;;;4897546;29;20033;-75
2022/07/23 02:24:20;;;;;;;0.30;0.30;;;15.50;76.60;;;;;;4899119;29;20071;-75
2022/07/23 02:26:45;;;;;;;0.57;0.40;;;15.40;76.70;;;;;;4882102;29;20447;-75
2022/07/23 02:29:11;;;;;;;0.25;0.25;;;15.40;76.80;;;;;;4899128;29;20421;-75
2022/07/23 02:31:37;;;;;;;0.30;0.30;;;15.30;76.90;;;;;;4899133;29;20041;-75
2022/07/23 02:34:03;;;;;;;0.20;0.20;;;15.30;77.00;;;;;;4898622;29;20387;-75
2022/07/23 02:36:29;;;;;;;0.47;0.47;;;15.30;77.10;;;;;;4898621;29;20049;-75
2022/07/23 02:38:54;;;;;;;0.35;0.30;;;15.30;77.20;;;;;;4898692;29;20373;-75
2022/07/23 02:41:20;;;;;;;0.40;0.40;;;15.20;77.10;;;;;;4898244;29;20045;-75
2022/07/23 02:43:46;;;;;;;0.52;0.40;;;15.30;77.10;;;;;;4881890;29;20040;-75
2022/07/23 02:46:11;;;;;;;0.32;0.32;;;15.20;77.00;;;;;;4881396;29;20432;-75
2022/07/23 02:48:37;;;;;;;0.30;0.30;;;15.20;77.10;;;;;;4897627;29;20400;-75
2022/07/23 02:51:03;;;;;;;0.30;0.30;;;15.10;77.10;;;;;;4850615;29;20028;-75
2022/07/23 02:53:28;;;;;;;0.35;0.35;;;15.10;77.20;;;;;;4898346;29;20037;-75
2022/07/23 02:55:54;;;;;;;0.20;0.20;;;15.10;77.20;;;;;;4882183;29;20088;-75
2022/07/23 02:58:20;;;;;;;0.30;0.30;;;15.10;77.20;;;;;;4898200;29;20052;-75
2022/07/23 03:00:45;;;;;;;0.25;0.22;;;15.10;77.30;;;;;;4898073;29;20495;-75
2022/07/23 03:03:11;;;;;;;0.30;0.30;;;15.10;77.30;;;;;;4898171;29;20036;-75
2022/07/23 03:05:37;;;;;;;0.40;0.40;;;15.00;77.40;;;;;;4881796;29;20052;-75
2022/07/23 03:08:03;;;;;;;0.30;0.30;;;15.00;77.40;;;;;;4881237;29;20039;-75
2022/07/23 03:10:28;;;;;;;0.30;0.30;;;14.90;77.50;;;;;;4898165;29;20127;-75
2022/07/23 03:12:54;;;;;;;0.30;0.30;;;15.00;77.60;;;;;;4865591;29;20043;-75
2022/07/23 03:15:20;;;;;;;0.25;0.20;;;14.90;77.50;;;;;;4881297;29;20048;-75
2022/07/23 03:17:45;;;;;;;0.30;0.30;;;14.90;77.70;;;;;;4898145;29;20046;-75
2022/07/23 03:20:11;;;;;;;0.30;0.30;;;14.90;77.70;;;;;;4881174;29;20407;-75
2022/07/23 03:22:37;;;;;;;0.40;0.40;;;14.80;77.70;;;;;;4897765;29;20120;-75
2022/07/23 03:25:03;;;;;;;0.50;0.40;;;14.80;77.70;;;;;;4880846;29;20060;-75
2022/07/23 03:27:30;;;;;;;0.32;0.32;;;14.80;78.50;;;;;;4888992;29;20052;-75
2022/07/23 03:29:58;;;;;;;0.85;0.40;;;14.80;77.90;;;;;;4881104;29;20128;-75
2022/07/23 03:32:25;;;;;;;0.20;0.20;;;14.80;77.90;;;;;;4897421;29;20040;-75
2022/07/23 03:34:51;;;;;;;0.30;0.30;;;14.70;77.80;;;;;;4897739;29;20035;-75
2022/07/23 03:37:18;;;;;;;0.30;0.30;;;14.70;77.80;;;;;;4897438;29;20037;-75
2022/07/23 03:39:44;;;;;;;0.28;0.28;;;14.70;77.80;;;;;;4881329;29;20041;-75
2022/07/23 03:42:10;;;;;;;0.30;0.30;;;14.70;77.90;;;;;;4916178;29;20490;-75
2022/07/23 03:44:38;;;;;;;0.30;0.30;;;14.70;77.90;;;;;;4914896;29;20040;-75
2022/07/23 03:47:05;;;;;;;0.40;0.40;;;14.60;77.90;;;;;;4916713;29;20414;-75
2022/07/23 03:49:31;;;;;;;0.43;0.43;;;14.60;78.00;;;;;;4914940;29;20391;-75
2022/07/23 03:51:57;;;;;;;0.20;0.20;;;14.60;78.00;;;;;;4916255;29;20100;-75
2022/07/23 03:54:23;;;;;;;0.32;0.32;;;14.60;78.10;;;;;;4850904;29;20036;-75
2022/07/23 03:56:49;;;;;;;0.30;0.30;;;14.60;78.10;;;;;;4865558;29;20043;-75
2022/07/23 03:59:14;;;;;;;0.25;0.25;;;14.50;78.10;;;;;;4880150;29;20127;-74
2022/07/23 04:01:40;;;;;;;0.47;0.47;;;14.60;78.20;;;;;;4897349;29;20051;-75
2022/07/23 04:04:08;;;;;;;0.50;0.30;;;14.60;78.20;;;;;;4897444;29;20484;-74
2022/07/23 04:06:34;;;;;;;0.30;0.30;;;14.50;78.20;;;;;;4897899;29;20047;-74
2022/07/23 04:08:59;;;;;;;0.30;0.30;;;14.50;78.30;;;;;;4881187;29;20040;-75
2022/07/23 04:11:26;;;;;;;0.30;0.30;;;14.50;78.20;;;;;;4897325;29;20036;-74
2022/07/23 04:13:51;;;;;;;0.40;0.40;;;14.50;78.30;;;;;;4897612;29;20029;-74
2022/07/23 04:16:17;;;;;;;0.30;0.30;;;14.50;78.30;;;;;;4897874;29;20380;-74
2022/07/23 04:18:43;;;;;;;0.30;0.30;;;14.50;78.20;;;;;;4897366;29;20048;-74
2022/07/23 04:21:08;;;;;;;0.20;0.20;;;14.50;78.20;;;;;;4880576;29;20051;-74
2022/07/23 04:23:34;;;;;;;0.30;0.30;;;14.50;78.20;;;;;;4897212;29;20037;-74
2022/07/23 04:26:00;;;;;;;0.20;0.20;;;14.50;78.30;;;;;;4880376;29;20056;-74
2022/07/23 04:28:26;;;;;;;0.30;0.30;;;14.50;78.20;;;;;;4880561;29;20128;-74
2022/07/23 04:30:51;;;;;;;0.30;0.30;;;14.50;78.20;;;;;;4880457;29;20105;-74
2022/07/23 04:33:17;;;;;;;0.30;0.30;;;14.50;78.20;;;;;;4880510;29;20041;-75
2022/07/23 04:35:43;;;;;;;0.30;0.30;;;14.50;78.20;;;;;;4896997;29;20036;-75
2022/07/23 04:38:09;;;;;;;0.40;0.40;;;14.50;78.20;;;;;;4865239;29;20563;-74
2022/07/23 04:40:34;;;;;;;1.05;0.38;;;14.50;78.20;;;;;;4897435;29;20041;-75
2022/07/23 04:43:01;;;;;;;0.38;0.30;;;14.60;78.80;;;;;;4880818;29;20044;-75
2022/07/23 04:45:26;;;;;;;0.52;0.30;;;14.60;78.20;;;;;;4896647;29;20052;-75
2022/07/23 04:47:52;;;;;;;0.30;0.30;;;14.60;78.20;;;;;;4897019;29;20048;-75
2022/07/23 04:50:21;;;;;;;0.63;0.30;;;14.60;78.20;;;;;;4880166;29;20032;-75
2022/07/23 04:52:48;;;;;;;0.30;0.30;;;14.60;78.20;;;;;;4896972;29;20040;-75
2022/07/23 04:55:14;;;;;;;0.20;0.20;;;14.60;78.20;;;;;;4879865;29;20115;-75
2022/07/23 04:57:40;;;;;;;0.20;0.20;;;14.70;78.20;;;;;;4896815;29;20064;-75
2022/07/23 05:00:06;;;;;;;0.30;0.30;;;14.70;78.20;;;;;;4896690;29;20522;-74
2022/07/23 05:02:32;;;;;;;0.20;0.20;;;14.70;78.20;;;;;;4897445;29;20488;-74
2022/07/23 05:04:58;;;;;;;0.30;0.30;;;14.70;78.10;;;;;;4897176;29;20112;-75
2022/07/23 05:07:24;;;;;;;0.30;0.30;;;14.80;78.10;;;;;;4880116;29;20037;-74
2022/07/23 05:09:49;;;;;;;0.20;0.20;;;14.80;78.10;;;;;;4896022;29;20039;-74
2022/07/23 05:12:15;;;;;;;0.25;0.25;;;14.80;78.00;;;;;;4896380;29;20119;-74
2022/07/23 05:14:41;;;;;;;0.20;0.20;;;14.90;78.00;;;;;;4896822;29;20061;-74
2022/07/23 05:17:07;;;;;;;0.20;0.20;;;15.00;78.00;;;;;;4897093;29;20080;-75
2022/07/23 05:19:34;;;;;;;0.30;0.30;;;15.00;78.00;;;;;;4896860;29;20148;-75
2022/07/23 05:22:00;;;;;;;0.10;0.10;;;15.00;77.90;;;;;;4864429;29;20127;-74
2022/07/23 05:24:25;;;;;;;0.77;0.30;;;15.10;77.90;;;;;;4896633;29;20140;-75
2022/07/23 05:26:51;;;;;;;0.60;0.35;;;15.20;77.80;;;;;;4896686;29;20060;-75
2022/07/23 05:29:17;;;;;;;0.90;0.30;;;15.20;77.70;;;;;;4879442;29;20041;-74
2022/07/23 05:31:42;;;;;;;0.25;0.25;;;15.30;77.60;;;;;;4896501;29;20040;-76
2022/07/23 05:34:08;;;;;;;1.10;0.30;;;15.40;77.50;;;;;;4896311;29;20129;-75
2022/07/23 05:36:34;;;;;;;0.40;0.32;;;15.50;77.40;;;;;;4896240;29;20036;-77
2022/07/23 05:38:59;;;;;;;0.22;0.22;;;15.50;77.20;;;;;;4896189;29;20041;-76
2022/07/23 05:41:25;;;;;;;1.98;0.43;;;15.70;77.20;;;;;;4879690;29;20108;-76
2022/07/23 05:43:51;;;;;;;0.20;0.20;;;15.70;77.00;;;;;;4896841;29;20392;-76
2022/07/23 05:46:16;;;;;;;1.02;0.30;;;15.80;77.00;;;;;;4879257;29;20053;-75
2022/07/23 05:48:43;;;;;;;1.08;0.30;;;15.90;76.90;;;;;;4863936;29;20097;-75
2022/07/23 05:51:08;;;;;;;0.20;0.20;;;15.90;76.70;;;;;;4879491;29;20101;-75
2022/07/23 05:53:35;;;;;;;0.30;0.30;;;16.00;76.70;;;;;;4896068;29;20112;-75
2022/07/23 05:56:01;;;;;;;0.20;0.20;;;16.00;76.60;;;;;;4903144;29;20047;-75
2022/07/23 05:58:27;;;;;;;0.20;0.20;;;16.10;76.60;;;;;;4913682;29;20040;-77
2022/07/23 06:00:53;;;;;;;0.47;0.30;;;16.10;76.50;;;;;;4913756;29;20044;-74
2022/07/23 06:03:19;;;;;;;0.20;0.20;;;16.10;76.40;;;;;;4914680;29;20087;-76
2022/07/23 06:05:45;;;;;;;0.68;0.30;;;16.20;76.40;;;;;;4914871;29;20048;-75
2022/07/23 06:08:11;;;;;;;0.30;0.20;;;16.20;76.40;;;;;;4898171;29;20404;-76
2022/07/23 06:10:36;;;;;;;0.15;0.15;;;16.20;76.30;;;;;;4895990;29;20037;-76
2022/07/23 06:13:02;;;;;;;0.30;0.30;;;16.30;76.30;;;;;;4895731;29;20071;-76
2022/07/23 06:15:28;;;;;;;0.17;0.17;;;16.40;76.40;;;;;;4878998;29;20404;-75
2022/07/23 06:17:54;;;;;;;0.15;0.15;;;16.40;76.30;;;;;;4895684;29;20048;-75
2022/07/23 06:20:20;;;;;;;0.13;0.13;;;16.50;76.30;;;;;;4879076;29;20193;-75
2022/07/23 06:22:45;;;;;;;0.30;0.30;;;16.50;76.20;;;;;;4898129;29;20037;-76
2022/07/23 06:25:11;;;;;;;0.32;0.32;;;16.60;76.10;;;;;;4882183;29;20048;-75
2022/07/23 06:27:37;;;;;;;0.38;0.38;;;16.60;76.00;;;;;;4898752;29;20398;-75
2022/07/23 06:30:03;;;;;;;0.30;0.30;;;16.70;76.00;;;;;;4882013;29;20032;-75
2022/07/23 06:32:29;;;;;;;0.32;0.32;;;16.70;75.80;;;;;;4899006;29;20113;-75
2022/07/23 06:34:54;;;;;;;0.22;0.22;;;16.80;75.80;;;;;;4884790;29;20466;-75
2022/07/23 06:37:20;;;;;;;0.20;0.20;;;16.90;75.70;;;;;;4892447;29;20041;-75
2022/07/23 06:39:46;;;;;;;0.30;0.30;;;16.90;75.60;;;;;;4899116;29;20364;-75
2022/07/23 06:42:12;;;;;;;0.30;0.30;;;17.00;75.50;;;;;;4898817;29;20059;-75
2022/07/23 06:44:38;;;;;;;0.30;0.30;;;17.10;75.40;;;;;;4898728;29;20491;-75
2022/07/23 06:47:03;;;;;;;0.20;0.20;;;17.10;75.20;;;;;;4881974;29;20096;-75
2022/07/23 06:49:29;;;;;;;0.30;0.30;;;17.20;75.10;;;;;;4881680;29;20452;-75
2022/07/23 06:51:55;;;;;;;0.35;0.35;;;17.30;75.00;;;;;;4898301;29;20037;-75
2022/07/23 06:54:20;;;;;;;0.20;0.20;;;17.30;74.80;;;;;;4898354;29;20036;-76
2022/07/23 06:56:46;;;;;;;0.40;0.30;;;17.40;74.80;;;;;;4898838;29;20037;-76
2022/07/23 06:59:12;;;;;;;0.20;0.20;;;17.50;74.80;;;;;;4899020;29;20072;-76
2022/07/23 07:01:38;;;;;;;0.20;0.20;;;17.60;74.60;;;;;;4850939;29;20037;-76
2022/07/23 07:04:04;;;;;;;0.40;0.40;;;17.70;74.40;;;;;;4898482;29;20551;-76
2022/07/23 07:06:29;;;;;;;0.32;0.32;;;17.80;74.20;;;;;;4898856;29;20044;-76
2022/07/23 07:08:56;;;;;;;0.30;0.30;;;18.00;73.90;;;;;;4898396;29;20060;-78
2022/07/23 07:11:21;;;;;;;0.40;0.40;;;18.20;73.60;;;;;;4899699;29;20039;-76
2022/07/23 07:13:47;;;;;;;0.20;0.20;;;18.30;73.40;;;;;;4866246;29;20120;-75
2022/07/23 07:16:13;;;;;;;0.30;0.30;;;18.40;73.00;;;;;;4898181;29;20037;-75
2022/07/23 07:18:38;;;;;;;0.90;0.47;;;18.60;72.80;;;;;;4898294;29;20041;-75
2022/07/23 07:21:04;;;;;;;0.30;0.30;;;18.70;72.50;;;;;;4898257;29;20067;-75
2022/07/23 07:23:30;;;;;;;0.20;0.20;;;18.90;72.40;;;;;;4898720;29;20067;-75
2022/07/23 07:25:55;;;;;;;0.65;0.40;;;19.00;72.20;;;;;;4898233;29;20048;-75
2022/07/23 07:28:21;;;;;;;0.20;0.20;;;19.20;72.20;;;;;;4881991;29;20036;-75
2022/07/23 07:30:47;;;;;;;0.30;0.30;;;19.20;71.90;;;;;;4898008;29;20139;-75
2022/07/23 07:33:12;;;;;;;0.25;0.25;;;19.30;71.80;;;;;;4897684;29;20037;-75
2022/07/23 07:35:38;;;;;;;0.30;0.30;;;19.50;71.70;;;;;;4898055;29;20037;-75
2022/07/23 07:38:04;;;;;;;0.30;0.30;;;19.60;71.40;;;;;;4897582;29;20085;-75
2022/07/23 07:40:29;;;;;;;0.65;0.50;;;19.80;71.20;;;;;;4897878;29;20043;-75
2022/07/23 07:42:56;;;;;;;1.48;0.50;;;20.00;70.90;;;;;;4898071;29;20480;-75
2022/07/23 07:45:24;;;;;;;0.60;0.60;;;20.10;70.70;;;;;;4897652;29;20033;-75
2022/07/23 07:47:50;;;;;;;0.77;0.43;;;20.30;70.60;;;;;;4897947;29;20048;-75
2022/07/23 07:50:16;;;;;;;0.43;0.43;;;20.30;70.30;;;;;;4897907;29;20484;-76
2022/07/23 07:52:42;;;;;;;0.30;0.30;;;20.40;70.20;;;;;;4898643;29;20033;-74
2022/07/23 07:55:09;;;;;;;0.38;0.38;;;20.50;70.30;;;;;;4898122;29;20060;-76
2022/07/23 07:57:36;;;;;;;0.32;0.32;;;20.50;70.40;;;;;;4897912;29;20044;-76
2022/07/23 08:00:02;;;;;;;0.50;0.50;;;20.60;70.40;;;;;;4881096;29;20052;-76
2022/07/23 08:02:28;;;;;;;0.30;0.30;;;20.70;70.40;;;;;;4880897;29;20041;-76
2022/07/23 08:04:53;;;;;;;0.40;0.40;;;20.80;70.20;;;;;;4897316;29;20036;-76
2022/07/23 08:07:19;;;;;;;0.73;0.45;;;21.00;70.20;;;;;;4895636;29;20040;-76
2022/07/23 08:09:45;;;;;;;0.30;0.30;;;21.10;69.90;;;;;;4897463;29;20025;-76
2022/07/23 08:12:11;;;;;;;0.40;0.40;;;21.30;69.50;;;;;;4849690;29;20048;-76
2022/07/23 08:14:37;;;;;;;0.40;0.40;;;21.40;69.40;;;;;;4897828;29;20070;-73
2022/07/23 08:17:02;;;;;;;0.55;0.40;;;21.50;69.20;;;;;;4880704;29;20036;-73
2022/07/23 08:19:28;;;;;;;0.40;0.40;;;21.70;69.10;;;;;;4897703;29;20056;-72
2022/07/23 08:21:53;;;;;;;0.30;0.30;;;21.80;68.80;;;;;;4880675;29;20047;-75
2022/07/23 08:24:19;;;;;;;0.40;0.40;;;21.90;68.60;;;;;;4897524;29;20036;-73
2022/07/23 08:26:45;;;;;;;0.50;0.47;;;22.00;68.60;;;;;;4897378;29;20484;-74
2022/07/23 08:29:10;;;;;;;1.33;0.40;;;22.10;68.60;;;;;;4897832;29;20448;-73
2022/07/23 08:31:36;;;;;;;0.43;0.40;;;22.30;68.40;;;;;;4880606;29;20048;-72
2022/07/23 08:34:02;;;;;;;0.57;0.57;;;22.40;68.20;;;;;;4897739;29;20032;-72
2022/07/23 08:36:31;;;;;;;0.30;0.30;;;22.40;67.90;;;;;;4897804;29;20068;-73
2022/07/23 08:38:59;;;;;;;0.47;0.40;;;22.50;67.90;;;;;;4880702;29;20040;-74
2022/07/23 08:41:25;;;;;;;0.50;0.50;;;22.40;68.10;;;;;;4897421;29;20058;-73
2022/07/23 08:43:52;;;;;;;0.40;0.40;;;22.50;68.10;;;;;;4896739;29;20064;-74
2022/07/23 08:46:20;;;;;;;0.40;0.40;;;22.60;68.00;;;;;;4897472;29;20098;-73
2022/07/23 08:48:48;;;;;;;0.65;0.40;;;22.70;67.90;;;;;;4894690;29;20033;-73
2022/07/23 08:51:14;;;;;;;0.43;0.43;;;22.70;68.00;;;;;;4897423;29;20033;-73
2022/07/23 08:53:41;;;;;;;0.40;0.40;;;22.80;67.90;;;;;;4896347;29;20045;-73
2022/07/23 08:56:08;;;;;;;0.60;0.50;;;22.90;67.80;;;;;;4896498;29;20040;-74
2022/07/23 08:58:34;;;;;;;0.95;0.35;;;23.00;67.30;;;;;;4896786;29;20036;-73
2022/07/23 09:01:01;;;;;;;1.25;0.63;;;22.90;67.40;;;;;;4897238;29;20056;-73
2022/07/23 09:03:30;;;;;;;0.93;0.50;;;23.10;67.10;;;;;;4866008;29;20055;-73
2022/07/23 09:05:57;;;;;;;0.40;0.40;;;23.10;66.90;;;;;;4880542;29;20059;-74
2022/07/23 09:08:33;;;;;;;0.40;0.40;;;23.10;66.90;;;;;;4896981;29;20044;-74
2022/07/23 09:11:01;;;;;;;0.80;0.50;;;23.20;66.90;;;;;;4896515;29;20391;-73
2022/07/23 09:13:32;;;;;;;0.30;0.30;;;23.20;66.80;;;;;;4896412;29;20047;-74
2022/07/23 09:16:01;;;;;;;0.50;0.50;;;23.40;66.70;;;;;;4897052;29;20036;-73
2022/07/23 09:18:30;;;;;;;0.38;0.38;;;23.40;66.70;;;;;;4864700;29;20045;-73
2022/07/23 09:21:12;;;;;;;0.40;0.40;;;23.40;66.40;;;;;;4878678;29;20045;-73
2022/07/23 09:23:42;;;;;;;0.47;0.47;;;23.40;66.30;;;;;;4895348;29;20463;-73
2022/07/23 09:26:23;;;;;;;0.88;0.50;;;23.50;66.40;;;;;;4895153;29;20166;-74
2022/07/23 09:28:57;;;;;;;;;;;23.60;66.80;;;;;;4896997;29;20092;-73
2022/07/23 09:31:24;;;;;;;0.93;0.52;;;23.60;66.20;;;;;;4896900;29;19907;-74
2022/07/23 09:33:50;;;;;;;0.40;0.40;;;23.60;65.90;;;;;;4897868;29;20116;-74
2022/07/23 09:36:26;;;;;;;0.50;0.50;;;23.60;65.90;;;;;;4896869;29;20064;-74
2022/07/23 09:38:52;;;;;;;0.40;0.40;;;23.60;65.80;;;;;;4895808;29;20060;-73
2022/07/23 09:41:18;;;;;;;0.50;0.50;;;23.60;65.90;;;;;;4896609;29;20488;-73
2022/07/23 09:43:44;;;;;;;0.50;0.50;;;23.80;65.90;;;;;;4880114;29;20040;-74
2022/07/23 09:46:24;;;;;;;0.43;0.43;;;23.80;65.60;;;;;;4879401;29;20060;-74
2022/07/23 09:48:52;;;;;;;0.40;0.40;;;24.00;65.30;;;;;;4896713;29;20041;-74
2022/07/23 09:51:25;;;;;;;0.40;0.40;;;24.00;65.10;;;;;;4896571;29;20067;-73
2022/07/23 09:53:51;;;;;;;0.50;0.50;;;24.00;65.00;;;;;;4896762;29;20037;-74
2022/07/23 09:56:19;;;;;;;0.30;0.30;;;24.10;64.70;;;;;;4897170;29;20040;-73
2022/07/23 09:58:50;;;;;;;0.30;0.30;;;24.10;64.50;;;;;;4899509;29;20045;-74
2022/07/23 10:01:15;;;;;;;0.80;0.52;;;24.10;64.40;;;;;;4899682;29;20066;-74
2022/07/23 10:03:42;;;;;;;0.40;0.40;;;24.10;64.20;;;;;;4883196;29;20059;-74
2022/07/23 10:06:10;;;;;;;0.40;0.40;;;24.10;64.20;;;;;;4899701;29;20045;-74
2022/07/23 10:08:38;;;;;;;0.50;0.50;;;24.00;64.40;;;;;;4899309;29;20047;-74
2022/07/23 10:11:05;;;;;;;0.40;0.40;;;24.10;64.20;;;;;;4899355;29;20088;-74
2022/07/23 10:16:16;;;;;;;0.40;0.40;;;24.10;63.80;;;;;;4884352;29;20399;-74
2022/07/23 10:18:42;;;;;;;2.03;0.50;;;24.10;64.00;;;;;;4899292;29;20092;-74
2022/07/23 10:21:10;;;;;;;0.40;0.40;;;24.10;63.90;;;;;;4899447;29;20033;-74
2022/07/23 10:23:42;;;;;;;0.40;0.40;;;24.10;63.90;;;;;;4899186;29;20119;-74
2022/07/23 10:26:32;;;;;;;0.50;0.50;;;24.10;63.80;;;;;;4882243;29;20108;-74
2022/07/23 10:29:12;;;;;;;0.43;0.43;;;24.20;63.40;;;;;;4897491;29;20475;-73
2022/07/23 10:32:15;;;;;;;0.70;0.50;;;24.20;63.30;;;;;;4881688;29;20043;-74
2022/07/23 10:34:58;;;;;;;0.32;0.32;;;24.20;63.20;;;;;;4897159;29;20029;-74
2022/07/23 10:37:34;;;;;;;0.50;0.50;;;24.30;63.20;;;;;;4882701;29;20108;-73
2022/07/23 10:40:18;;;;;;;0.47;0.47;;;24.50;62.70;;;;;;4898238;29;20915;-74
2022/07/23 10:42:46;;;;;;;0.40;0.40;;;24.50;62.60;;;;;;4895744;29;20045;-74
2022/07/23 10:45:29;;;;;;;0.60;0.55;;;24.50;62.70;;;;;;4899104;29;20119;-74
2022/07/23 10:48:11;;;;;;;0.40;0.40;;;24.60;62.30;;;;;;4898446;29;20040;-74
2022/07/23 10:50:36;;;;;;;0.40;0.40;;;24.60;62.10;;;;;;4898726;29;20109;-74
2022/07/23 10:53:13;;;;;;;0.98;0.52;;;24.80;61.90;;;;;;4882608;29;20041;-74
2022/07/23 10:55:44;;;;;;;0.52;0.52;;;24.80;61.80;;;;;;4882753;29;20042;-73
2022/07/23 10:58:10;;;;;;;0.77;0.60;;;24.90;61.80;;;;;;4882105;29;20040;-73
2022/07/23 11:00:36;;;;;;;2.15;0.50;;;24.90;61.60;;;;;;4882037;29;20060;-73
2022/07/23 11:03:24;;;;;;;0.30;0.30;;;25.10;61.50;;;;;;4882048;29;20037;-73
2022/07/23 11:05:49;;;;;;;0.30;0.30;;;25.10;61.40;;;;;;4880153;29;20119;-74
2022/07/23 11:08:17;;;;;;;0.32;0.32;;;25.20;61.20;;;;;;4897815;29;20045;-74
2022/07/23 11:10:49;;;;;;;0.50;0.50;;;25.30;61.00;;;;;;4896593;29;20185;-73
2022/07/23 11:13:31;;;;;;;0.60;0.60;;;25.10;60.90;;;;;;4880065;29;20096;-73
2022/07/23 11:16:12;;;;;;;0.52;0.52;;;25.00;61.20;;;;;;4898055;29;20046;-74
2022/07/23 11:18:53;;;;;;;;;;;25.00;61.30;;;;;;4898565;29;20472;-74
2022/07/23 11:21:41;;;;;;;0.50;0.50;;;25.00;61.50;;;;;;4899039;29;19907;-73
2022/07/23 11:24:13;;;;;;;0.45;0.45;;;25.00;61.30;;;;;;4869857;29;20045;-73
2022/07/23 11:26:49;;;;;;;0.57;0.57;;;25.00;61.30;;;;;;4897954;29;20041;-73
2022/07/23 11:29:37;;;;;;;0.40;0.40;;;25.20;61.00;;;;;;4898004;29;20483;-73
2022/07/23 11:32:07;;;;;;;0.68;0.68;;;25.30;60.70;;;;;;4885011;29;20104;-74
2022/07/23 11:34:39;;;;;;;0.50;0.50;;;25.30;60.40;;;;;;4897058;29;20032;-74
2022/07/23 11:37:07;;;;;;;0.50;0.50;;;25.40;60.50;;;;;;4898482;29;20048;-74
2022/07/23 11:39:34;;;;;;;0.75;0.50;;;25.40;60.40;;;;;;4899636;29;20124;-74
2022/07/23 11:42:01;;;;;;;0.70;0.40;;;25.30;60.50;;;;;;4898567;29;20036;-74
2022/07/23 11:44:30;;;;;;;2.05;0.68;;;25.20;60.70;;;;;;4879807;29;20036;-74
2022/07/23 11:46:58;;;;;;;0.50;0.50;;;25.20;60.70;;;;;;4898174;29;20049;-74
2022/07/23 11:49:25;;;;;;;0.52;0.40;;;25.20;60.60;;;;;;4881322;29;20041;-74
2022/07/23 11:52:05;;;;;;;0.50;0.50;;;25.30;60.50;;;;;;4850432;29;20040;-74
2022/07/23 11:54:32;;;;;;;0.40;0.40;;;25.30;60.20;;;;;;4865255;29;20028;-74
2022/07/23 11:56:59;;;;;;;0.70;0.70;;;25.40;60.10;;;;;;4863863;29;20052;-74
2022/07/23 11:59:27;;;;;;;0.50;0.50;;;25.50;59.90;;;;;;4897501;29;20127;-74
2022/07/23 12:02:01;;;;;;;0.55;0.50;;;25.50;59.70;;;;;;4880918;29;20033;-74
2022/07/23 12:04:45;;;;;;;0.88;0.60;;;25.60;59.70;;;;;;4897695;29;20105;-74
2022/07/23 12:07:30;;;;;;;0.52;0.52;;;25.50;59.50;;;;;;4880536;29;20063;-74
2022/07/23 12:10:00;;;;;;;0.45;0.45;;;25.50;59.60;;;;;;4900073;29;20068;-75
2022/07/23 12:12:26;;;;;;;1.02;0.70;;;25.40;59.60;;;;;;4899072;29;20039;-74
2022/07/23 12:14:55;;;;;;;0.60;0.60;;;25.40;59.70;;;;;;4882732;29;20029;-74
2022/07/23 12:17:26;;;;;;;0.50;0.50;;;25.40;59.80;;;;;;4895842;29;20126;-73
2022/07/23 12:19:52;;;;;;;0.43;0.38;;;25.30;59.90;;;;;;4897324;29;20112;-75
2022/07/23 12:22:18;;;;;;;0.45;0.45;;;25.30;59.90;;;;;;4880459;29;20424;-74
2022/07/23 12:25:02;;;;;;;0.52;0.52;;;25.40;59.90;;;;;;4898561;29;20040;-75
2022/07/23 12:27:28;;;;;;;0.50;0.50;;;25.40;59.70;;;;;;4867265;29;20052;-75
2022/07/23 12:29:54;;;;;;;0.65;0.65;;;25.40;59.60;;;;;;4899574;29;20044;-75
2022/07/23 12:32:23;;;;;;;0.55;0.55;;;25.50;59.40;;;;;;4880358;29;20036;-75
2022/07/23 12:35:01;;;;;;;0.63;0.63;;;25.50;59.30;;;;;;4898188;29;20028;-74
2022/07/23 12:37:33;;;;;;;0.50;0.50;;;25.50;59.30;;;;;;4897348;29;20052;-74
2022/07/23 12:40:18;;;;;;;0.40;0.40;;;25.60;59.30;;;;;;4896440;29;20047;-74
2022/07/23 12:42:43;;;;;;;0.50;0.50;;;25.60;59.20;;;;;;4898956;29;20120;-75
2022/07/23 12:45:11;;;;;;;0.88;0.60;;;25.70;59.00;;;;;;4882560;29;20067;-74
2022/07/23 12:47:58;;;;;;;1.00;0.50;;;25.70;58.90;;;;;;4898896;29;20045;-74
2022/07/23 12:50:33;;;;;;;0.47;0.47;;;25.70;58.80;;;;;;4894772;29;20039;-74
2022/07/23 12:53:05;;;;;;;0.50;0.50;;;25.80;58.80;;;;;;4880410;29;20108;-73